»·PEaware :: N484GE L71-L26

N484GE :: L71-L26

FLIGHT INFORMATION

Flight Status: Arrived
Operator: Privately registered:
United States
More flights under this callsign
Pilot: Ronald B. (5322)
Aircraft: CESSNA 172 SKYHAWK
(C172)
More flights by this aircraft type
Origin: L71 California City Mun
United States
Destination: L26 Hesperia
United States
More flights between these airports :: More routes between these airports
Route: EDW
File this flight plan on PilotEdge
Remarks:
Altitude:
(Current/Filed)
5,500ft
Speed:
(Current/Filed)
100kts
Departed: 26-Nov-16 09:53 AM
Arrived: 26-Nov-16 10:50 AM
Distance/Time
Traveled:
58nm/0:57
Distance/Time
To Go:
Arrived

Flight Plot

Page will automatically refresh every two minutes.

Flight plan parsing failed; only flown route is shown


Map Options




Map Legend


Flown Route
Filed Route
Departure Airport
Arrival Airport
Navaid (VOR, NDB)
Fix

Horizontal Profiles

Position Reports

Time Latitude Longitude Heading Altitude Ground
Speed
26-Nov-16 09:30 35.150210 -118.017014 269 2457ft 0kts
26-Nov-16 09:31 35.150210 -118.017014 269 2457ft 0kts
26-Nov-16 09:32 35.150210 -118.017014 269 2457ft 0kts
26-Nov-16 09:33 35.150210 -118.017014 269 2457ft 0kts
26-Nov-16 09:34 35.150210 -118.017015 269 2457ft 0kts
26-Nov-16 09:35 35.150210 -118.017023 269 2457ft 0kts
26-Nov-16 09:36 35.150210 -118.017030 269 2457ft 0kts
26-Nov-16 09:37 35.150210 -118.017037 269 2457ft 0kts
26-Nov-16 09:38 35.150210 -118.017043 269 2457ft 0kts
26-Nov-16 09:39 35.150210 -118.017050 269 2457ft 0kts
26-Nov-16 09:40 35.150210 -118.017057 269 2457ft 0kts
26-Nov-16 09:41 35.150367 -118.016813 56 2457ft 4kts
26-Nov-16 09:42 35.151022 -118.014428 75 2457ft 13kts
26-Nov-16 09:43 35.152107 -118.009345 73 2457ft 17kts
26-Nov-16 09:44 35.152888 -118.006947 339 2457ft 0kts
26-Nov-16 09:45 35.153178 -118.007527 255 2457ft 8kts
26-Nov-16 09:46 35.148300 -118.031950 259 3020ft 97kts
26-Nov-16 09:47 35.137662 -118.062959 239 4123ft 100kts
26-Nov-16 09:48 35.126152 -118.093418 237 5098ft 101kts
26-Nov-16 09:49 35.101434 -118.096161 148 5519ft 102kts
26-Nov-16 09:50 35.077580 -118.077309 129 5530ft 105kts
26-Nov-16 09:51 35.084725 -118.043084 73 5544ft 106kts
26-Nov-16 09:52 35.095909 -118.008062 73 5499ft 110kts
26-Nov-16 09:53 35.106518 -117.971699 73 5499ft 114kts
26-Nov-16 09:54 35.103993 -117.936085 102 5499ft 103kts
26-Nov-16 09:55 35.116207 -117.911770 4 5516ft 109kts
26-Nov-16 09:56 35.141780 -117.911713 329 5470ft 112kts
26-Nov-16 09:57 35.139604 -117.944006 236 5497ft 102kts
26-Nov-16 09:58 35.122094 -117.981245 237 5493ft 111kts
26-Nov-16 09:59 35.109878 -118.007471 237 5498ft 104kts
26-Nov-16 10:00 35.096520 -118.038487 238 5501ft 101kts
26-Nov-16 10:01 35.083642 -118.069058 237 5506ft 100kts
26-Nov-16 10:02 35.064509 -118.092701 215 5503ft 97kts
26-Nov-16 10:03 35.042813 -118.114031 215 5500ft 101kts
26-Nov-16 10:04 35.019020 -118.128888 186 5502ft 97kts
26-Nov-16 10:05 34.994008 -118.139333 190 5498ft 93kts
26-Nov-16 10:06 34.967563 -118.140217 175 5502ft 96kts
26-Nov-16 10:07 34.941311 -118.135768 171 5499ft 93kts
26-Nov-16 10:08 34.915626 -118.129968 170 5501ft 93kts
26-Nov-16 10:09 34.890111 -118.124118 170 5501ft 93kts
26-Nov-16 10:10 34.864705 -118.118362 170 5506ft 92kts
26-Nov-16 10:11 34.839344 -118.112246 170 5501ft 93kts
26-Nov-16 10:12 34.812684 -118.106148 170 5502ft 100kts
26-Nov-16 10:13 34.786398 -118.099956 170 5499ft 93kts
26-Nov-16 10:14 34.760368 -118.093960 170 5503ft 96kts
26-Nov-16 10:15 34.733967 -118.087886 170 5506ft 101kts
26-Nov-16 10:16 34.704762 -118.080995 171 5505ft 109kts
26-Nov-16 10:17 34.675398 -118.073416 148 5494ft 108kts
26-Nov-16 10:18 34.653573 -118.049711 141 5503ft 102kts
26-Nov-16 10:19 34.632255 -118.026298 141 5503ft 103kts
26-Nov-16 10:20 34.612127 -118.000989 124 5504ft 106kts
26-Nov-16 10:21 34.597964 -117.969832 117 5506ft 106kts
26-Nov-16 10:22 34.586413 -117.937578 119 5508ft 102kts
26-Nov-16 10:23 34.574581 -117.904740 119 5507ft 108kts
26-Nov-16 10:24 34.562686 -117.870949 118 5508ft 108kts
26-Nov-16 10:25 34.550791 -117.838152 119 5506ft 106kts
26-Nov-16 10:26 34.538660 -117.804349 119 5519ft 109kts
26-Nov-16 10:27 34.525924 -117.769248 119 5492ft 115kts
26-Nov-16 10:28 34.514002 -117.736110 119 5498ft 102kts
26-Nov-16 10:29 34.502551 -117.704184 119 5489ft 103kts
26-Nov-16 10:30 34.489803 -117.669279 116 5480ft 119kts
26-Nov-16 10:31 34.475847 -117.634691 116 5486ft 111kts
26-Nov-16 10:32 34.463166 -117.600802 115 5486ft 109kts
26-Nov-16 10:33 34.450695 -117.567932 114 5480ft 106kts
26-Nov-16 10:34 34.438997 -117.534987 114 5473ft 105kts
26-Nov-16 10:35 34.426633 -117.500710 115 5474ft 114kts
26-Nov-16 10:36 34.414097 -117.466527 114 5472ft 108kts
26-Nov-16 10:37 34.401932 -117.433530 114 5474ft 106kts
26-Nov-16 10:38 34.389489 -117.399258 109 5439ft 113kts
26-Nov-16 10:39 34.382901 -117.362379 103 5125ft 104kts
26-Nov-16 10:40 34.378152 -117.326034 107 4430ft 108kts
26-Nov-16 10:41 34.380102 -117.296308 40 3964ft 98kts
26-Nov-16 10:42 34.389200 -117.303970 201 3809ft 64kts
26-Nov-16 10:43 34.377139 -117.315704 211 3393ft 25kts
26-Nov-16 10:44 34.376318 -117.316151 37 3393ft 9kts
26-Nov-16 10:45 34.379450 -117.313189 37 3393ft 12kts
26-Nov-16 10:46 34.379835 -117.312473 125 3393ft 0kts
26-Nov-16 10:47 34.379835 -117.312472 125 3393ft 0kts
26-Nov-16 10:48 34.379835 -117.312472 125 3393ft 0kts
26-Nov-16 10:49 34.379835 -117.312472 125 3393ft 0kts
26-Nov-16 10:50 34.379835 -117.312472 125 3393ft 0kts
26-Nov-16 10:51 34.379835 -117.312472 125 3393ft 0kts
26-Nov-16 10:52 34.379835 -117.312472 125 3393ft 0kts
26-Nov-16 10:53 34.379835 -117.312472 125 3393ft 0kts
26-Nov-16 10:54 34.379833 -117.312470 125 3393ft 0kts

Navigation Log

Ident Type
Flight plan parsing failed, navigation log unavailable